createdAt,value
2023-04-01T00:00:53.422Z,99187.34
2023-04-01T00:03:57.224Z,99191.38
2023-04-01T00:07:00.497Z,99195.06
2023-04-01T00:10:03.116Z,99194.16
2023-04-01T00:13:05.761Z,99194.06
2023-04-01T00:16:20.935Z,99193.38
2023-04-01T00:19:24.584Z,99189.91
2023-04-01T00:22:28.150Z,99202.13
2023-04-01T00:25:31.255Z,99190.09
2023-04-01T00:28:36.823Z,99198.31
2023-04-01T00:31:40.919Z,99192.44
2023-04-01T00:34:45.213Z,99205.84
2023-04-01T00:37:48.228Z,99193.19
2023-04-01T00:40:51.962Z,99190.09
2023-04-01T00:43:54.933Z,99192.88
2023-04-01T00:46:58.951Z,99197.34
2023-04-01T00:50:01.747Z,99196.91
2023-04-01T00:53:05.153Z,99194.16
2023-04-01T00:56:13.696Z,99195.53
2023-04-01T00:59:20.660Z,99196.50
2023-04-01T01:02:24.733Z,99199.88
2023-04-01T01:05:49.546Z,99200.97
2023-04-01T01:09:08.688Z,99203.69
2023-04-01T01:12:16.088Z,99205.19
2023-04-01T01:15:23.426Z,99209.00
2023-04-01T01:18:37.758Z,99199.88
2023-04-01T01:22:03.829Z,99198.41
2023-04-01T01:25:23.839Z,99204.13
2023-04-01T01:28:39.964Z,99196.06
2023-04-01T01:31:52.481Z,99195.84
2023-04-01T01:35:01.134Z,99203.09
2023-04-01T01:38:08.249Z,99206.47
2023-04-01T01:41:14.238Z,99200.50
2023-04-01T01:44:18.147Z,99202.53
2023-04-01T01:47:23.407Z,99206.88
2023-04-01T01:50:27.871Z,99209.22
2023-04-01T01:53:31.882Z,99204.66
2023-04-01T01:56:36.245Z,99208.81
2023-04-01T01:59:41.602Z,99210.50
2023-04-01T02:02:46.190Z,99207.09
2023-04-01T02:05:49.750Z,99212.41
2023-04-01T02:08:58.191Z,99211.25
2023-04-01T02:12:05.398Z,99219.44
2023-04-01T02:15:11.785Z,99221.53
2023-04-01T02:18:16.398Z,99211.53
2023-04-01T02:21:20.781Z,99212.41
2023-04-01T02:24:27.139Z,99213.69
2023-04-01T02:27:30.567Z,99219.19
2023-04-01T02:30:35.618Z,99215.59
2023-04-01T02:33:39.794Z,99223.97
2023-04-01T02:36:42.912Z,99227.72
2023-04-01T02:39:46.883Z,99227.16
2023-04-01T02:42:49.569Z,99217.09
2023-04-01T02:45:52.350Z,99227.59
2023-04-01T02:48:55.715Z,99223.91
2023-04-01T02:51:58.305Z,99235.13
2023-04-01T02:55:02.261Z,99238.09
2023-04-01T02:58:05.057Z,99243.38
2023-04-01T03:01:09.196Z,99246.78
2023-04-01T03:04:11.876Z,99241.25
2023-04-01T03:07:14.777Z,99251.03
2023-04-01T03:10:19.245Z,99246.88
2023-04-01T03:13:21.818Z,99248.50
2023-04-01T03:16:24.593Z,99252.97
2023-04-01T03:19:27.227Z,99245.97
2023-04-01T03:22:29.889Z,99252.19
2023-04-01T03:25:34.524Z,99251.69
2023-04-01T03:28:37.372Z,99248.91
2023-04-01T03:31:39.972Z,99244.75
2023-04-01T03:34:42.755Z,99257.19
2023-04-01T03:37:45.439Z,99248.91
2023-04-01T03:40:49.516Z,99255.50
2023-04-01T03:43:52.181Z,99255.28
2023-04-01T03:46:54.767Z,99261.00
2023-04-01T03:49:57.361Z,99255.50
2023-04-01T03:52:59.934Z,99263.56
2023-04-01T03:56:07.486Z,99269.91
2023-04-01T03:59:10.428Z,99265.56
2023-04-01T04:02:13.009Z,99268.50
2023-04-01T04:05:16.079Z,99277.31
2023-04-01T04:08:19.339Z,99272.38
2023-04-01T04:11:24.394Z,99278.41
2023-04-01T04:14:27.217Z,99276.72
2023-04-01T04:17:29.832Z,99278.09
2023-04-01T04:20:32.460Z,99277.34
2023-04-01T04:23:35.655Z,99284.13
2023-04-01T04:26:39.657Z,99289.44
2023-04-01T04:29:42.452Z,99286.69
2023-04-01T04:32:45.156Z,99293.47
2023-04-01T04:35:47.849Z,99288.03
2023-04-01T04:38:50.554Z,99296.66
2023-04-01T04:41:54.484Z,99298.09
2023-04-01T04:44:57.108Z,99302.78
2023-04-01T04:47:59.703Z,99307.00
2023-04-01T04:51:02.582Z,99300.34
2023-04-01T04:54:06.297Z,99308.41
2023-04-01T04:57:10.397Z,99311.88
2023-04-01T05:00:13.768Z,99322.59
2023-04-01T05:03:16.470Z,99321.34
2023-04-01T05:06:21.651Z,99326.97
2023-04-01T05:09:26.107Z,99328.25
2023-04-01T05:12:30.028Z,99334.38
2023-04-01T05:15:32.794Z,99330.03
2023-04-01T05:18:35.944Z,99337.38
2023-04-01T05:21:38.566Z,99337.03
2023-04-01T05:24:41.165Z,99341.94
2023-04-01T05:27:45.147Z,99344.31
2023-04-01T05:30:48.156Z,99343.97
2023-04-01T05:33:50.820Z,99350.66
2023-04-01T05:36:53.420Z,99358.09
2023-04-01T05:39:56.228Z,99356.97
2023-04-01T05:43:00.847Z,99361.00
2023-04-01T05:46:03.539Z,99372.81
2023-04-01T05:49:06.162Z,99379.91
2023-04-01T05:52:09.968Z,99376.16
2023-04-01T05:55:12.792Z,99384.81
2023-04-01T05:58:16.734Z,99388.34
2023-04-01T06:01:19.678Z,99395.78
2023-04-01T06:04:22.623Z,99400.84
2023-04-01T06:07:25.688Z,99405.91
2023-04-01T06:10:43.258Z,99404.78
2023-04-01T06:14:09.388Z,99416.00
2023-04-01T06:17:25.742Z,99415.91
2023-04-01T06:20:40.446Z,99415.19
2023-04-01T06:23:59.984Z,99431.50
2023-04-01T06:27:14.837Z,99427.00
2023-04-01T06:30:43.092Z,99427.03
2023-04-01T06:33:58.016Z,99434.91
2023-04-01T06:37:18.894Z,99433.75
2023-04-01T06:40:40.831Z,99443.41
2023-04-01T06:43:55.730Z,99448.19
2023-04-01T06:47:05.180Z,99453.66
2023-04-01T06:50:19.524Z,99457.22
2023-04-01T06:53:26.351Z,99461.97
2023-04-01T06:56:31.438Z,99465.22
2023-04-01T06:59:37.477Z,99470.28
2023-04-01T07:02:45.268Z,99481.44
2023-04-01T07:05:47.980Z,99480.59
2023-04-01T07:08:53.337Z,99491.53
2023-04-01T07:12:01.748Z,99496.00
2023-04-01T07:15:14.308Z,99491.84
2023-04-01T07:18:24.544Z,99506.16
2023-04-01T07:21:33.745Z,99509.25
2023-04-01T07:24:39.644Z,99514.22
2023-04-01T07:27:43.524Z,99516.00
2023-04-01T07:30:54.512Z,99527.81
2023-04-01T07:34:10.209Z,99527.19
2023-04-01T07:37:17.148Z,99531.88
2023-04-01T07:40:28.872Z,99540.25
2023-04-01T07:43:44.986Z,99536.06
2023-04-01T07:47:13.249Z,99546.63
2023-04-01T07:50:24.940Z,99547.03
2023-04-01T07:53:37.802Z,99547.19
2023-04-01T07:56:47.660Z,99550.91
2023-04-01T08:00:01.253Z,99570.31
2023-04-01T08:03:21.698Z,99568.94
2023-04-01T08:06:32.259Z,99575.22
2023-04-01T08:09:45.213Z,99583.22
2023-04-01T08:13:01.847Z,99600.25
2023-04-01T08:16:11.762Z,99585.94
2023-04-01T08:19:28.877Z,99599.34
2023-04-01T08:22:38.464Z,99601.84
2023-04-01T08:25:46.753Z,99606.63
2023-04-01T08:28:54.948Z,99618.13
2023-04-01T08:32:04.168Z,99620.97
2023-04-01T08:35:16.509Z,99626.75
2023-04-01T08:38:25.619Z,99630.25
2023-04-01T08:41:46.803Z,99621.47
2023-04-01T08:45:07.734Z,99629.56
2023-04-01T08:48:33.720Z,99635.34
2023-04-01T08:51:56.846Z,99645.78
2023-04-01T08:55:28.132Z,99646.31
2023-04-01T08:59:04.137Z,99646.03
2023-04-01T09:02:28.639Z,99652.91
2023-04-01T09:06:15.872Z,99656.44
2023-04-01T09:10:00.005Z,99662.06
2023-04-01T09:13:17.587Z,99672.75
2023-04-01T09:16:31.029Z,99666.97
2023-04-01T09:19:52.376Z,99673.81
2023-04-01T09:23:12.649Z,99693.66
2023-04-01T09:26:32.861Z,99688.22
2023-04-01T09:30:21.048Z,99703.50
2023-04-01T09:34:05.350Z,99692.09
2023-04-01T09:37:21.005Z,99690.03
2023-04-01T09:40:33.421Z,99709.63
2023-04-01T09:43:52.236Z,99711.91
2023-04-01T09:47:11.432Z,99716.63
2023-04-01T09:50:33.855Z,99720.09
2023-04-01T09:53:54.496Z,99726.28
2023-04-01T09:57:18.715Z,99726.59
2023-04-01T10:00:41.519Z,99729.78
2023-04-01T10:04:09.169Z,99739.16
2023-04-01T10:07:54.661Z,99742.22
2023-04-01T10:11:24.876Z,99739.53
2023-04-01T10:15:09.130Z,99745.88
2023-04-01T10:18:40.243Z,99753.72
2023-04-01T10:22:10.867Z,99765.88
2023-04-01T10:25:39.708Z,99761.91
2023-04-01T10:29:22.515Z,99765.22
2023-04-01T10:32:58.887Z,99764.28
2023-04-01T10:36:35.332Z,99774.41
2023-04-01T10:40:23.478Z,99772.56
2023-04-01T10:44:06.097Z,99772.75
2023-04-01T10:47:57.013Z,99791.88
2023-04-01T10:51:12.936Z,99800.09
2023-04-01T10:54:31.321Z,99795.72
2023-04-01T10:58:00.840Z,99804.28
2023-04-01T11:01:45.978Z,99801.31
2023-04-01T11:05:18.783Z,99806.47
2023-04-01T11:08:59.954Z,99812.84
2023-04-01T11:12:22.159Z,99817.72
2023-04-01T11:15:50.936Z,99825.91
2023-04-01T11:19:29.793Z,99824.16
2023-04-01T11:22:48.254Z,99836.00
2023-04-01T11:26:01.990Z,99840.09
2023-04-01T11:29:56.679Z,99843.75
2023-04-01T11:33:10.948Z,99849.16
2023-04-01T11:36:45.791Z,99858.19
2023-04-01T11:40:07.039Z,99862.56
2023-04-01T11:43:32.256Z,99863.09
2023-04-01T11:46:45.362Z,99869.44
2023-04-01T11:50:05.074Z,99874.81
2023-04-01T11:53:18.431Z,99878.56
2023-04-01T11:56:52.043Z,99891.78
2023-04-01T12:00:16.791Z,99894.81
2023-04-01T12:03:37.640Z,99899.06
2023-04-01T12:06:50.763Z,99905.66
2023-04-01T12:10:04.599Z,99897.75
2023-04-01T12:13:16.556Z,99908.56
2023-04-01T12:16:33.056Z,99917.72
2023-04-01T12:19:47.309Z,99920.53
2023-04-01T12:23:01.239Z,99919.84
2023-04-01T12:26:30.102Z,99922.84
2023-04-01T12:29:51.406Z,99935.47
2023-04-01T12:33:07.047Z,99946.69
2023-04-01T12:36:21.032Z,99947.38
2023-04-01T12:39:51.800Z,99946.03
2023-04-01T12:43:07.649Z,99956.13
2023-04-01T12:46:19.703Z,99965.84
2023-04-01T12:49:36.182Z,99971.97
2023-04-01T12:52:54.055Z,99970.91
2023-04-01T12:55:58.157Z,99965.22
2023-04-01T12:59:28.190Z,99976.91
2023-04-01T13:02:47.194Z,99980.66
2023-04-01T13:06:23.384Z,99988.47
2023-04-01T13:09:39.951Z,99996.91
2023-04-01T13:13:17.597Z,100010.47
2023-04-01T13:16:25.328Z,100008.00
2023-04-01T13:19:35.384Z,100020.22
2023-04-01T13:22:53.718Z,100020.28
2023-04-01T13:26:14.594Z,100038.00
2023-04-01T13:29:23.867Z,100032.81
2023-04-01T13:32:43.386Z,100034.06
2023-04-01T13:35:56.831Z,100039.81
2023-04-01T13:39:17.163Z,100047.88
2023-04-01T13:42:27.251Z,100049.16
2023-04-01T13:45:41.181Z,100050.94
2023-04-01T13:49:01.823Z,100062.97
2023-04-01T13:52:19.677Z,100062.84
2023-04-01T13:55:36.612Z,100068.59
2023-04-01T13:59:15.519Z,100078.66
2023-04-01T14:02:42.529Z,100075.38
2023-04-01T14:05:53.590Z,100084.22
2023-04-01T14:09:29.574Z,100086.72
2023-04-01T14:12:38.726Z,100090.66
2023-04-01T14:15:52.664Z,100098.56
2023-04-01T14:19:13.848Z,100101.53
2023-04-01T14:22:29.048Z,100111.53
2023-04-01T14:25:50.281Z,100118.72
2023-04-01T14:29:01.822Z,100122.25
2023-04-01T14:32:13.564Z,100128.63
2023-04-01T14:35:28.852Z,100136.53
2023-04-01T14:38:49.776Z,100121.81
2023-04-01T14:42:19.001Z,100137.22
2023-04-01T14:45:38.882Z,100137.69
2023-04-01T14:48:53.619Z,100149.25
2023-04-01T14:52:05.917Z,100153.84
2023-04-01T14:55:34.180Z,100162.38
2023-04-01T14:58:48.172Z,100158.91
2023-04-01T15:01:57.890Z,100168.41
2023-04-01T15:05:13.055Z,100170.03
2023-04-01T15:08:22.944Z,100194.16
2023-04-01T15:11:46.517Z,100179.06
2023-04-01T15:15:09.904Z,100185.63
2023-04-01T15:18:20.974Z,100197.03
2023-04-01T15:21:43.188Z,100199.84
2023-04-01T15:24:53.244Z,100207.59
2023-04-01T15:28:05.903Z,100211.47
2023-04-01T15:31:17.661Z,100219.09
2023-04-01T15:34:32.647Z,100231.31
2023-04-01T15:37:42.723Z,100249.59
2023-04-01T15:40:55.501Z,100234.78
2023-04-01T15:43:58.137Z,100242.47
2023-04-01T15:47:02.783Z,100254.88
2023-04-01T15:50:38.971Z,100255.38
2023-04-01T15:54:03.956Z,100248.16
2023-04-01T15:57:20.813Z,100261.16
2023-04-01T16:00:29.508Z,100279.38
2023-04-01T16:03:40.984Z,100277.66
2023-04-01T16:07:00.999Z,100281.50
2023-04-01T16:10:24.959Z,100290.06
2023-04-01T16:13:46.010Z,100311.81
2023-04-01T16:17:02.980Z,100302.25
2023-04-01T16:20:19.818Z,100300.84
2023-04-01T16:23:26.414Z,100313.53
2023-04-01T16:26:38.240Z,100325.38
2023-04-01T16:29:48.797Z,100325.81
2023-04-01T16:32:56.250Z,100326.34
2023-04-01T16:36:08.807Z,100334.28
2023-04-01T16:39:28.353Z,100345.66
2023-04-01T16:42:42.363Z,100344.63
2023-04-01T16:45:55.176Z,100365.69
2023-04-01T16:49:04.920Z,100367.25
2023-04-01T16:52:17.464Z,100373.41
2023-04-01T16:55:23.135Z,100386.72
2023-04-01T16:58:29.461Z,100391.13
2023-04-01T17:01:45.480Z,100395.03
2023-04-01T17:04:50.715Z,100404.72
2023-04-01T17:08:08.195Z,100410.94
2023-04-01T17:11:19.734Z,100414.22
2023-04-01T17:14:30.061Z,100418.69
2023-04-01T17:17:45.558Z,100426.44
2023-04-01T17:20:52.404Z,100438.88
2023-04-01T17:24:07.913Z,100441.66
2023-04-01T17:27:24.270Z,100455.34
2023-04-01T17:30:36.252Z,100461.00
2023-04-01T17:33:54.658Z,100464.16
2023-04-01T17:37:10.280Z,100482.09
2023-04-01T17:40:28.414Z,100483.22
2023-04-01T17:43:42.945Z,100495.28
2023-04-01T17:47:00.860Z,100488.38
2023-04-01T17:50:21.485Z,100494.13
2023-04-01T17:53:35.327Z,100519.09
2023-04-01T17:56:55.671Z,100517.13
2023-04-01T18:00:04.720Z,100525.25
2023-04-01T18:03:19.094Z,100527.00
2023-04-01T18:06:32.314Z,100535.72
2023-04-01T18:09:48.111Z,100545.75
2023-04-01T18:13:18.085Z,100550.47
2023-04-01T18:16:36.103Z,100564.25
2023-04-01T18:19:48.393Z,100571.41
2023-04-01T18:22:59.354Z,100579.84
2023-04-01T18:26:08.271Z,100588.47
2023-04-01T18:29:20.201Z,100602.81
2023-04-01T18:32:36.038Z,100609.56
2023-04-01T18:35:52.583Z,100617.69
2023-04-01T18:39:02.357Z,100622.09
2023-04-01T18:42:13.164Z,100626.78
2023-04-01T18:45:25.448Z,100645.66
2023-04-01T18:48:43.678Z,100649.84
2023-04-01T18:51:54.648Z,100658.41
2023-04-01T18:55:33.813Z,100663.06
2023-04-01T18:58:45.597Z,100673.97
2023-04-01T19:01:58.684Z,100671.66
2023-04-01T19:05:06.378Z,100687.00
2023-04-01T19:08:22.035Z,100698.19
2023-04-01T19:11:33.620Z,100697.94
2023-04-01T19:14:53.510Z,100706.81
2023-04-01T19:18:09.788Z,100708.22
2023-04-01T19:21:18.621Z,100716.25
2023-04-01T19:24:41.354Z,100717.88
2023-04-01T19:27:50.667Z,100729.88
2023-04-01T19:30:59.056Z,100730.75
2023-04-01T19:34:10.598Z,100731.72
2023-04-01T19:37:27.603Z,100735.75
2023-04-01T19:40:39.437Z,100737.59
2023-04-01T19:43:54.713Z,100747.63
2023-04-01T19:47:04.362Z,100753.69
2023-04-01T19:50:28.616Z,100756.97
2023-04-01T19:53:38.645Z,100772.47
2023-04-01T19:56:47.669Z,100775.47
2023-04-01T19:59:55.320Z,100783.44
2023-04-01T20:03:06.899Z,100792.28
2023-04-01T20:06:19.362Z,100793.28
2023-04-01T20:09:53.809Z,100806.59
2023-04-01T20:13:04.502Z,100805.31
2023-04-01T20:16:09.723Z,100815.00
2023-04-01T20:19:14.133Z,100822.50
2023-04-01T20:22:29.627Z,100825.78
2023-04-01T20:25:37.156Z,100833.56
2023-04-01T20:28:50.773Z,100841.78
2023-04-01T20:32:04.472Z,100850.34
2023-04-01T20:35:24.888Z,100864.22
2023-04-01T20:38:56.538Z,100870.38
2023-04-01T20:42:21.555Z,100880.53
2023-04-01T20:45:39.963Z,100880.16
2023-04-01T20:49:21.537Z,100887.97
2023-04-01T20:52:34.917Z,100882.03
2023-04-01T20:56:03.816Z,100891.06
2023-04-01T20:59:26.022Z,100901.28
2023-04-01T21:02:44.990Z,100901.63
2023-04-01T21:06:03.625Z,100908.69
2023-04-01T21:09:24.215Z,100920.75
2023-04-01T21:12:36.553Z,100917.63
2023-04-01T21:15:53.135Z,100915.91
2023-04-01T21:19:06.189Z,100927.03
2023-04-01T21:22:36.085Z,100932.16
2023-04-01T21:26:00.722Z,100940.91
2023-04-01T21:29:23.415Z,100941.84
2023-04-01T21:33:01.481Z,100945.53
2023-04-01T21:36:16.320Z,100949.78
2023-04-01T21:39:29.384Z,100960.00
2023-04-01T21:42:45.780Z,100963.44
2023-04-01T21:46:12.272Z,100964.06
2023-04-01T21:49:37.875Z,100964.69
2023-04-01T21:52:58.029Z,100967.41
2023-04-01T21:56:41.891Z,100975.00
2023-04-01T22:00:16.750Z,100980.50
2023-04-01T22:03:49.084Z,100986.63
2023-04-01T22:06:58.697Z,100995.22
2023-04-01T22:10:07.451Z,101000.44
2023-04-01T22:13:19.571Z,101006.63
2023-04-01T22:16:29.412Z,101014.78
2023-04-01T22:19:42.022Z,101021.78
2023-04-01T22:22:58.645Z,101028.66
2023-04-01T22:26:08.001Z,101037.66
2023-04-01T22:29:16.805Z,101037.31
2023-04-01T22:32:25.849Z,101045.97
2023-04-01T22:35:39.446Z,101055.78
2023-04-01T22:39:04.384Z,101056.22
2023-04-01T22:42:17.363Z,101070.16
2023-04-01T22:45:46.935Z,101072.09
2023-04-01T22:48:58.816Z,101074.75
2023-04-01T22:52:08.590Z,101080.19
2023-04-01T22:55:15.454Z,101083.38
2023-04-01T22:58:20.787Z,101087.88
2023-04-01T23:01:28.233Z,101087.94
2023-04-01T23:04:35.739Z,101092.38
2023-04-01T23:07:50.039Z,101103.47
2023-04-01T23:10:56.419Z,101104.53
2023-04-01T23:14:08.886Z,101113.06
2023-04-01T23:17:27.719Z,101113.97
2023-04-01T23:20:40.887Z,101125.22
2023-04-01T23:23:57.477Z,101131.16
2023-04-01T23:27:04.212Z,101137.34
2023-04-01T23:30:47.271Z,101139.44
2023-04-01T23:33:55.882Z,101134.31
2023-04-01T23:37:03.352Z,101142.94
2023-04-01T23:40:14.184Z,101149.16
2023-04-01T23:43:23.921Z,101150.88
2023-04-01T23:46:27.791Z,101149.78
2023-04-01T23:49:36.392Z,101159.59
2023-04-01T23:52:44.034Z,101171.94
2023-04-01T23:55:48.603Z,101167.50
2023-04-01T23:58:57.776Z,101181.47
